Aérodrome :
LOGIN :

S'inscrire | Disclaimer

   EN    FR    IT 

 










Légende :    VFR   VFR Marginal   IFR   IFR Intensif   IFR Très Intensif
Visi : 
Plafond : 
>= 8 km
>= 3000ft
5 à 8 km
1000 à 3000 ft
1500m à 5 km
500 à 1000 ft
800 à 1500m
200 à 500 ft
< 800m
< 200 ft
Symboles :   Orages  Brouillard  Fortes neiges  Fortes précipitations  Vent > 20 kt
SIGMETs :   Divers  Orages  Givrage  Turbulence  Onde Orograph.  Cendres Volcan.






- Altitude de l'aérodrome : 138 ft
- Code IATA : BIO


LEBB - Bilbao

DERNIER METAR :
  • 261300Z VRB03KT 9999 FEW045 25/14 Q1020 NOSIG

METARs EXPIRÉS :
  • 261230Z VRB02KT 9999 FEW045 25/14 Q1020 NOSIG
  • 261200Z VRB02KT 9999 FEW040 25/14 Q1020 NOSIG
  • 261130Z VRB03KT 9999 FEW040 25/14 Q1020 NOSIG
  • 261100Z VRB02KT 9999 FEW040 24/13 Q1020 NOSIG
  • 261030Z 23004KT 170V340 9999 FEW040 24/14 Q1020 NOSIG

TAF TAF LEBB
Valide du 26 à 12h jusqu'au 27 à 12h UTC


261100Z 2612/2712 VRB03KT CAVOK TX25/2615Z TN15/2706Z
PROB30
TEMPO 2615/2618 07008KT
TEMPO 2703/2710 22010KT
TEMPO 2709/2712 29010KT
PROB30
TEMPO 2711/2712 3000 RA BKN010



MET'MAP, la Météo Aéronautique d'un coup d'oeil ! - Copyright ORBIFLY Décembre 2007 - Disclaimer

ORBIFLY MET'MAP TEAM :

Programmation & Développement : Alexandra Zaïnal
Sur une idée originale de : Baudouin d'Aumeries
Assistance à la programmation : Marc-Olivier Méhu
Soutien technique & logistique : Manuel Goepfert

Contact : metmap@orbifly.com




SOURCES & CREDITS :

   NOAA